Terminal Aerodrome Forecast
Issued by NWS

Home | Current Version | Previous Version | Text Only | Print | Product List | Glossary On
Versions: 1 2 3 4 5 6 7 8 9 10 11 12 13 14 15 16 17
367
FTUS42 KFFC 230956 AAA
TAFFTY
TAF AMD
KFTY 230956Z 2310/2406 25003KT P6SM FEW035 FEW250
     FM231400 30005KT P6SM SCT025 SCT120
     FM231600 31007KT P6SM VCSH BKN045
      TEMPO 2317/2321 3SM TSRA BKN035CB
     FM232300 33005KT P6SM SCT045 SCT120=

USA.gov is the U.S. government's official web portal to all federal, state and local government web resources and services.